OISF  Fasa Airport

Add Bookmark

Fasa, Iran

Status IATA
Operational FAZ
Latitude Longitude
28° 53' 30" N 53° 43' 23" E
28.891800 53.723301
Local (DST + 5) UTC (GMT + 4)
Oct 2, 2014 05:57 Oct 2, 2014 14:27
Sunrise-Sunset Local UTC
Begin Civil Twilight 05:23 01:53
Sunrise 05:47 02:17
Sunset 05:41 14:11
End Civil Twilight 06:04 14:34

Current Weather

METAR Observed VFR
OISF 021350Z 19006KT CAVOK 32/01 Q1016 Thu, Oct 2, 2014 @ 13:50 UTC
(37 Minutes ago)
Visual Flight Rules
Wind Visibility Clouds Conditions
190° at 6 knots (11 kph) 10 km or more
  • Clear skies
  • No significant weather
Temperatures Readings Precipitation
Current Temp 32°C (90°F)
Dewpoint 1°C (34°F)
Humidity 14%
Altimeter 30"Hg
Sea Level Pressure 1016mb
Field Elevation 4537.4'
None Recorded

Additional weather within a 185.2km radius of OISF

Map ICAO Location
OISS 131.3km W (303°)
OISL 149.8km S (154°)
OISR 176.7km S (197°)
OIBJ 179.3km S (229°)

24 Hour Weather History

Loading
-

24 Hour Weather Graphs

Loading
-

CheckWX.com is intended as a tool to help pilots better visualize weather data. It is not intended as a substitute for an official weather briefing obtained from a Flight Service Station. CheckWX.com does not meet the FAA requirements for an official pre-flight weather briefing. Therefore, it's important that pilots still call and obtain an official FSS pre-flight weather briefing.